Siglerville, Pennsylvania
Current Conditions -  °F | °C
As of 11:15 PM on Monday 22 Dec 2014 (Local Time) from KUNV Reporting Station
Haze Haze  
Wind Chill: 32°   Ceiling: 1100
Heat Index: 32°   Visibility: 1.7mi
Dew Point: 32°   Wind: 0mph
Humidity: 99%   Direction: NA
Pressure: 30.07"   Gusts: NA
Location:  40.7567°N, 77.488°W
Report Text: KUNV 230415Z AUTO 00000KT 1 3/4SM BR SCT008 OVC011 00/00 A3007 RMK AO2 T00001002
Loading
Personal Weather Stations






























Interactive Weather Map New forecast layout! Learn more

10-Day Weather Forecast

Advertisements
Track Severe Weather on mobile